createdAt,value
2023-02-27T00:00:42.543Z,99.90
2023-02-27T00:03:09.279Z,99.90
2023-02-27T00:05:35.964Z,99.90
2023-02-27T00:08:02.632Z,99.90
2023-02-27T00:10:29.254Z,99.90
2023-02-27T00:12:56.064Z,99.90
2023-02-27T00:15:23.506Z,99.90
2023-02-27T00:17:50.172Z,99.90
2023-02-27T00:20:18.160Z,99.90
2023-02-27T00:22:45.293Z,99.90
2023-02-27T00:25:12.788Z,99.90
2023-02-27T00:27:39.688Z,99.90
2023-02-27T00:30:07.294Z,99.90
2023-02-27T00:32:36.549Z,99.90
2023-02-27T00:35:07.254Z,99.90
2023-02-27T00:37:34.612Z,99.90
2023-02-27T00:40:01.453Z,99.90
2023-02-27T00:42:28.654Z,99.90
2023-02-27T00:44:55.293Z,99.90
2023-02-27T00:47:21.992Z,99.90
2023-02-27T00:49:48.600Z,99.90
2023-02-27T00:52:15.403Z,99.90
2023-02-27T00:54:42.257Z,99.90
2023-02-27T00:57:08.857Z,99.90
2023-02-27T00:59:35.500Z,99.90
2023-02-27T01:02:02.091Z,99.90
2023-02-27T01:04:28.808Z,99.90
2023-02-27T01:06:55.509Z,99.90
2023-02-27T01:09:22.295Z,99.90
2023-02-27T01:11:49.057Z,99.90
2023-02-27T01:14:15.724Z,99.90
2023-02-27T01:16:42.478Z,99.90
2023-02-27T01:19:09.119Z,99.90
2023-02-27T01:21:35.846Z,99.90
2023-02-27T01:24:02.569Z,99.90
2023-02-27T01:26:29.304Z,99.90
2023-02-27T01:28:55.979Z,99.90
2023-02-27T01:31:22.825Z,99.90
2023-02-27T01:33:49.529Z,99.90
2023-02-27T01:36:16.242Z,99.90
2023-02-27T01:38:42.939Z,99.90
2023-02-27T01:41:09.838Z,99.90
2023-02-27T01:43:53.470Z,99.90
2023-02-27T01:46:20.208Z,99.90
2023-02-27T01:48:47.352Z,99.90
2023-02-27T01:51:16.768Z,99.90
2023-02-27T01:53:44.096Z,99.90
2023-02-27T01:56:12.842Z,99.90
2023-02-27T01:58:40.014Z,99.90
2023-02-27T02:01:06.885Z,99.90
2023-02-27T02:03:37.556Z,99.90
2023-02-27T02:06:06.129Z,99.90
2023-02-27T02:08:35.388Z,99.90
2023-02-27T02:11:02.214Z,99.90
2023-02-27T02:13:29.072Z,99.90
2023-02-27T02:16:01.693Z,99.90
2023-02-27T02:18:34.488Z,99.90
2023-02-27T02:21:10.458Z,99.90
2023-02-27T02:23:39.939Z,99.90
2023-02-27T02:26:06.581Z,99.90
2023-02-27T02:28:37.792Z,99.90
2023-02-27T02:31:23.117Z,99.90
2023-02-27T02:34:04.651Z,99.90
2023-02-27T02:36:34.612Z,99.90
2023-02-27T02:39:21.510Z,99.90
2023-02-27T02:41:48.149Z,99.90
2023-02-27T02:44:33.287Z,99.90
2023-02-27T02:47:04.925Z,99.90
2023-02-27T02:49:43.760Z,99.90
2023-02-27T02:52:17.050Z,99.90
2023-02-27T02:54:48.131Z,99.90
2023-02-27T02:57:17.713Z,99.90
2023-02-27T03:00:02.535Z,99.90
2023-02-27T03:02:31.415Z,99.90
2023-02-27T03:05:00.654Z,99.90
2023-02-27T03:07:30.918Z,99.90
2023-02-27T03:10:01.008Z,99.90
2023-02-27T03:12:29.271Z,99.90
2023-02-27T03:15:00.222Z,99.90
2023-02-27T03:17:48.702Z,99.90
2023-02-27T03:20:18.368Z,99.90
2023-02-27T03:22:47.295Z,99.90
2023-02-27T03:25:14.626Z,99.90
2023-02-27T03:27:45.086Z,99.90
2023-02-27T03:30:28.028Z,99.90
2023-02-27T03:32:57.763Z,99.90
2023-02-27T03:35:28.379Z,99.90
2023-02-27T03:38:01.422Z,99.90
2023-02-27T03:40:28.119Z,99.90
2023-02-27T03:43:02.407Z,99.90
2023-02-27T03:45:29.069Z,99.90
2023-02-27T03:47:55.809Z,99.90
2023-02-27T03:50:22.468Z,99.90
2023-02-27T03:52:49.578Z,99.90
2023-02-27T03:55:17.525Z,99.90
2023-02-27T03:57:45.397Z,99.90
2023-02-27T04:00:14.408Z,99.90
2023-02-27T04:02:41.905Z,99.90
2023-02-27T04:05:08.608Z,99.90
2023-02-27T04:07:35.224Z,99.90
2023-02-27T04:10:13.822Z,99.90
2023-02-27T04:12:55.513Z,99.90
2023-02-27T04:15:22.178Z,99.90
2023-02-27T04:17:51.844Z,99.90
2023-02-27T04:20:24.062Z,99.90
2023-02-27T04:23:02.075Z,99.90
2023-02-27T04:25:52.012Z,99.90
2023-02-27T04:28:27.615Z,99.90
2023-02-27T04:30:57.371Z,99.90
2023-02-27T04:33:53.312Z,99.90
2023-02-27T04:36:22.767Z,99.90
2023-02-27T04:38:53.640Z,99.90
2023-02-27T04:41:23.146Z,99.90
2023-02-27T04:43:50.109Z,99.90
2023-02-27T04:46:18.640Z,99.90
2023-02-27T04:48:53.190Z,99.90
2023-02-27T04:51:29.170Z,99.90
2023-02-27T04:54:00.819Z,99.90
2023-02-27T04:56:47.524Z,99.90
2023-02-27T04:59:22.545Z,99.90
2023-02-27T05:02:08.792Z,99.90
2023-02-27T05:04:37.467Z,99.90
2023-02-27T05:07:05.717Z,99.90
2023-02-27T05:09:41.112Z,99.90
2023-02-27T05:12:15.353Z,99.90
2023-02-27T05:14:45.078Z,99.90
2023-02-27T05:17:16.154Z,99.90
2023-02-27T05:19:43.543Z,99.90
2023-02-27T05:22:10.195Z,99.90
2023-02-27T05:24:46.236Z,99.90
2023-02-27T05:27:13.068Z,99.90
2023-02-27T05:29:42.851Z,99.90
2023-02-27T05:32:28.032Z,99.90
2023-02-27T05:34:57.005Z,99.90
2023-02-27T05:37:28.170Z,99.90
2023-02-27T05:39:54.758Z,99.90
2023-02-27T05:42:30.982Z,99.90
2023-02-27T05:45:03.531Z,99.90
2023-02-27T05:47:31.942Z,99.90
2023-02-27T05:50:18.849Z,99.90
2023-02-27T05:52:45.918Z,99.90
2023-02-27T05:55:21.627Z,99.90
2023-02-27T05:57:59.180Z,99.90
2023-02-27T06:00:44.439Z,99.90
2023-02-27T06:03:11.676Z,99.90
2023-02-27T06:05:39.678Z,99.90
2023-02-27T06:08:06.395Z,99.90
2023-02-27T06:10:33.078Z,99.90
2023-02-27T06:12:59.756Z,99.90
2023-02-27T06:15:26.446Z,99.90
2023-02-27T06:17:53.074Z,99.90
2023-02-27T06:20:19.838Z,99.90
2023-02-27T06:22:46.446Z,99.90
2023-02-27T06:25:13.245Z,99.90
2023-02-27T06:27:39.997Z,99.90
2023-02-27T06:30:07.435Z,99.90
2023-02-27T06:32:34.146Z,99.90
2023-02-27T06:35:00.784Z,99.90
2023-02-27T06:37:27.424Z,99.90
2023-02-27T06:39:54.059Z,99.90
2023-02-27T06:42:20.951Z,99.90
2023-02-27T06:44:47.626Z,99.90
2023-02-27T06:47:14.486Z,99.90
2023-02-27T06:49:41.381Z,99.90
2023-02-27T06:52:08.105Z,99.90
2023-02-27T06:54:34.692Z,99.90
2023-02-27T06:57:01.349Z,99.90
2023-02-27T06:59:28.042Z,99.90
2023-02-27T07:01:54.945Z,99.90
2023-02-27T07:04:21.633Z,99.90
2023-02-27T07:07:35.269Z,99.20
2023-02-27T07:09:36.286Z,98.00
2023-02-27T07:12:03.540Z,96.80
2023-02-27T07:14:30.480Z,95.70
2023-02-27T07:16:57.203Z,95.20
2023-02-27T07:19:24.282Z,94.70
2023-02-27T07:21:51.160Z,94.40
2023-02-27T07:24:17.787Z,94.30
2023-02-27T07:26:44.395Z,93.70
2023-02-27T07:29:11.088Z,93.70
2023-02-27T07:31:37.826Z,92.20
2023-02-27T07:34:04.578Z,92.90
2023-02-27T07:36:31.611Z,92.70
2023-02-27T07:38:58.732Z,91.20
2023-02-27T07:41:30.739Z,90.70
2023-02-27T07:43:57.917Z,90.00
2023-02-27T07:46:27.646Z,91.10
2023-02-27T07:48:54.972Z,88.90
2023-02-27T07:51:21.699Z,90.20
2023-02-27T07:53:48.345Z,88.50
2023-02-27T07:56:14.928Z,90.00
2023-02-27T07:58:41.598Z,87.80
2023-02-27T08:01:08.285Z,89.00
2023-02-27T08:03:34.962Z,88.30
2023-02-27T08:06:02.443Z,88.70
2023-02-27T08:08:29.798Z,88.30
2023-02-27T08:10:56.581Z,85.40
2023-02-27T08:13:42.258Z,83.30
2023-02-27T08:16:09.953Z,81.90
2023-02-27T08:18:36.667Z,79.90
2023-02-27T08:21:05.023Z,78.50
2023-02-27T08:23:32.462Z,79.90
2023-02-27T08:25:59.133Z,79.90
2023-02-27T08:28:25.764Z,80.00
2023-02-27T08:30:52.398Z,80.10
2023-02-27T08:33:19.114Z,77.10
2023-02-27T08:35:45.913Z,76.40
2023-02-27T08:38:12.551Z,75.10
2023-02-27T08:40:39.229Z,78.40
2023-02-27T08:43:05.920Z,79.50
2023-02-27T08:45:32.697Z,80.50
2023-02-27T08:47:59.438Z,79.60
2023-02-27T08:50:26.085Z,81.30
2023-02-27T08:52:52.935Z,80.90
2023-02-27T08:55:20.041Z,79.10
2023-02-27T08:57:46.704Z,75.00
2023-02-27T09:00:14.815Z,75.80
2023-02-27T09:02:41.564Z,72.20
2023-02-27T09:05:08.592Z,75.10
2023-02-27T09:07:35.282Z,75.10
2023-02-27T09:10:02.036Z,75.50
2023-02-27T09:12:28.688Z,75.10
2023-02-27T09:14:55.316Z,76.60
2023-02-27T09:17:21.935Z,76.30
2023-02-27T09:19:49.302Z,73.60
2023-02-27T09:22:15.906Z,73.80
2023-02-27T09:24:42.551Z,73.00
2023-02-27T09:27:09.205Z,73.10
2023-02-27T09:29:35.801Z,73.60
2023-02-27T09:32:02.543Z,71.00
2023-02-27T09:34:29.671Z,69.90
2023-02-27T09:36:58.736Z,71.30
2023-02-27T09:39:25.758Z,72.00
2023-02-27T09:41:56.341Z,70.20
2023-02-27T09:44:44.802Z,71.10
2023-02-27T09:47:15.464Z,73.00
2023-02-27T09:49:53.472Z,75.30
2023-02-27T09:52:20.261Z,76.40
2023-02-27T09:54:47.002Z,74.00
2023-02-27T09:57:33.870Z,71.50
2023-02-27T10:00:04.333Z,69.20
2023-02-27T10:02:40.633Z,70.10
2023-02-27T10:05:22.496Z,72.20
2023-02-27T10:08:09.921Z,72.50
2023-02-27T10:10:45.466Z,72.20
2023-02-27T10:13:12.098Z,75.20
2023-02-27T10:15:45.737Z,74.20
2023-02-27T10:18:26.129Z,73.70
2023-02-27T10:20:58.809Z,72.20
2023-02-27T10:23:33.682Z,71.40
2023-02-27T10:26:01.051Z,71.80
2023-02-27T10:28:28.578Z,71.10
2023-02-27T10:30:56.726Z,69.20
2023-02-27T10:33:29.318Z,70.70
2023-02-27T10:35:55.981Z,72.40
2023-02-27T10:38:30.106Z,72.00
2023-02-27T10:40:57.936Z,73.40
2023-02-27T10:43:25.101Z,74.80
2023-02-27T10:45:52.990Z,72.70
2023-02-27T10:48:20.468Z,73.00
2023-02-27T10:50:52.162Z,75.80
2023-02-27T10:53:21.982Z,76.30
2023-02-27T10:55:58.166Z,77.00
2023-02-27T10:58:24.912Z,77.80
2023-02-27T11:00:59.287Z,76.60
2023-02-27T11:03:29.178Z,74.60
2023-02-27T11:05:57.662Z,73.50
2023-02-27T11:08:25.768Z,73.80
2023-02-27T11:10:54.400Z,73.30
2023-02-27T11:13:22.108Z,75.30
2023-02-27T11:16:07.757Z,73.70
2023-02-27T11:18:35.441Z,71.70
2023-02-27T11:21:20.435Z,69.80
2023-02-27T11:24:03.968Z,71.10
2023-02-27T11:26:30.727Z,72.80
2023-02-27T11:29:04.814Z,74.40
2023-02-27T11:31:32.850Z,74.30
2023-02-27T11:34:01.050Z,74.70
2023-02-27T11:36:40.734Z,74.70
2023-02-27T11:39:07.645Z,74.00
2023-02-27T11:41:34.910Z,75.00
2023-02-27T11:44:03.195Z,76.60
2023-02-27T11:46:47.417Z,77.10
2023-02-27T11:49:15.455Z,77.20
2023-02-27T11:51:45.090Z,78.80
2023-02-27T11:54:32.405Z,78.20
2023-02-27T11:57:05.065Z,77.10
2023-02-27T11:59:43.906Z,78.20
2023-02-27T12:02:31.148Z,76.80
2023-02-27T12:05:12.990Z,76.00
2023-02-27T12:07:54.171Z,74.50
2023-02-27T12:10:22.472Z,75.50
2023-02-27T12:12:55.369Z,76.90
2023-02-27T12:15:34.388Z,77.30
2023-02-27T12:18:19.466Z,78.00
2023-02-27T12:20:50.488Z,77.70
2023-02-27T12:23:21.147Z,77.90
2023-02-27T12:25:54.061Z,77.70
2023-02-27T12:28:27.010Z,76.80
2023-02-27T12:31:04.126Z,77.90
2023-02-27T12:33:49.050Z,76.60
2023-02-27T12:36:15.891Z,75.40
2023-02-27T12:38:42.566Z,75.40
2023-02-27T12:41:09.180Z,76.40
2023-02-27T12:43:35.778Z,77.20
2023-02-27T12:46:21.206Z,77.30
2023-02-27T12:49:06.818Z,77.90
2023-02-27T12:51:36.590Z,78.60
2023-02-27T12:54:09.345Z,77.50
2023-02-27T12:56:38.783Z,76.90
2023-02-27T12:59:22.174Z,76.90
2023-02-27T13:01:53.201Z,78.90
2023-02-27T13:04:27.914Z,78.50
2023-02-27T13:07:04.264Z,79.20
2023-02-27T13:09:40.484Z,79.60
2023-02-27T13:12:07.072Z,79.40
2023-02-27T13:14:33.953Z,79.10
2023-02-27T13:17:17.499Z,80.10
2023-02-27T13:19:56.176Z,81.20
2023-02-27T13:22:22.881Z,81.80
2023-02-27T13:24:50.939Z,81.60
2023-02-27T13:27:20.789Z,81.80
2023-02-27T13:30:13.645Z,81.90
2023-02-27T13:32:43.935Z,82.00
2023-02-27T13:35:21.433Z,81.20
2023-02-27T13:37:54.088Z,81.40
2023-02-27T13:40:50.240Z,80.30
2023-02-27T13:43:23.112Z,79.70
2023-02-27T13:46:12.800Z,80.30
2023-02-27T13:48:40.780Z,80.60
2023-02-27T13:51:26.424Z,80.40
2023-02-27T13:54:06.809Z,80.90
2023-02-27T13:56:33.645Z,80.20
2023-02-27T13:59:13.884Z,80.50
2023-02-27T14:01:47.916Z,80.60
2023-02-27T14:04:17.587Z,80.70
2023-02-27T14:06:45.741Z,79.60
2023-02-27T14:09:15.371Z,79.00
2023-02-27T14:11:51.390Z,80.10
2023-02-27T14:14:36.940Z,80.10
2023-02-27T14:17:04.269Z,80.50
2023-02-27T14:19:33.736Z,80.30
2023-02-27T14:22:24.488Z,81.00
2023-02-27T14:25:02.498Z,80.40
2023-02-27T14:27:38.701Z,80.30
2023-02-27T14:30:07.933Z,79.30
2023-02-27T14:32:35.879Z,79.50
2023-02-27T14:35:05.020Z,79.60
2023-02-27T14:37:32.115Z,79.60
2023-02-27T14:40:01.189Z,80.10
2023-02-27T14:42:47.812Z,79.60
2023-02-27T14:45:20.723Z,78.90
2023-02-27T14:47:48.621Z,80.00
2023-02-27T14:50:21.601Z,79.70
2023-02-27T14:52:48.375Z,78.90
2023-02-27T14:55:28.075Z,79.50
2023-02-27T14:57:54.808Z,79.90
2023-02-27T15:00:33.971Z,80.00
2023-02-27T15:03:00.887Z,80.40
2023-02-27T15:05:34.762Z,79.50
2023-02-27T15:08:01.810Z,80.40
2023-02-27T15:10:33.409Z,79.00
2023-02-27T15:13:01.450Z,79.10
2023-02-27T15:15:28.604Z,78.60
2023-02-27T15:17:55.835Z,78.80
2023-02-27T15:20:25.554Z,78.40
2023-02-27T15:22:52.278Z,78.10
2023-02-27T15:25:28.080Z,78.20
2023-02-27T15:27:57.753Z,78.10
2023-02-27T15:30:24.675Z,78.90
2023-02-27T15:32:52.210Z,77.60
2023-02-27T15:35:22.343Z,77.90
2023-02-27T15:37:51.716Z,78.10
2023-02-27T15:40:22.731Z,77.90
2023-02-27T15:42:49.768Z,78.00
2023-02-27T15:45:19.615Z,78.40
2023-02-27T15:47:46.599Z,78.40
2023-02-27T15:50:16.109Z,77.60
2023-02-27T15:52:44.401Z,78.60
2023-02-27T15:55:15.200Z,79.80
2023-02-27T15:57:52.907Z,80.90
2023-02-27T16:00:28.608Z,81.40
2023-02-27T16:02:57.070Z,81.00
2023-02-27T16:05:38.013Z,80.70
2023-02-27T16:08:06.820Z,81.10
2023-02-27T16:10:37.613Z,80.80
2023-02-27T16:13:39.904Z,81.30
2023-02-27T16:16:21.636Z,80.80
2023-02-27T16:18:48.580Z,80.90
2023-02-27T16:21:19.440Z,80.70
2023-02-27T16:23:46.550Z,81.60
2023-02-27T16:26:38.002Z,80.70
2023-02-27T16:29:22.039Z,80.70
2023-02-27T16:31:53.158Z,81.80
2023-02-27T16:34:45.027Z,80.90
2023-02-27T16:37:41.333Z,81.30
2023-02-27T16:40:11.041Z,81.00
2023-02-27T16:42:37.737Z,81.50
2023-02-27T16:45:04.755Z,81.20
2023-02-27T16:47:32.913Z,81.10
2023-02-27T16:49:59.654Z,81.00
2023-02-27T16:52:26.571Z,81.70
2023-02-27T16:54:53.641Z,81.50
2023-02-27T16:57:24.799Z,82.60
2023-02-27T16:59:51.596Z,82.90
2023-02-27T17:02:19.306Z,81.90
2023-02-27T17:04:47.945Z,81.80
2023-02-27T17:07:17.106Z,82.40
2023-02-27T17:09:44.829Z,83.00
2023-02-27T17:12:11.715Z,82.20
2023-02-27T17:14:38.381Z,81.50
2023-02-27T17:17:05.621Z,81.60
2023-02-27T17:19:32.613Z,82.40
2023-02-27T17:21:59.303Z,81.50
2023-02-27T17:24:26.042Z,81.70
2023-02-27T17:26:52.795Z,80.70
2023-02-27T17:29:19.633Z,80.70
2023-02-27T17:31:46.550Z,80.50
2023-02-27T17:34:13.311Z,79.20
2023-02-27T17:36:40.178Z,79.40
2023-02-27T17:39:07.380Z,78.40
2023-02-27T17:41:34.144Z,78.30
2023-02-27T17:44:01.816Z,77.90
2023-02-27T17:46:29.890Z,77.40
2023-02-27T17:49:00.451Z,77.80
2023-02-27T17:51:28.888Z,78.40
2023-02-27T17:53:55.724Z,78.00
2023-02-27T17:56:22.489Z,78.40
2023-02-27T17:58:49.323Z,79.30
2023-02-27T18:01:20.272Z,80.10
2023-02-27T18:03:47.322Z,80.30
2023-02-27T18:06:14.704Z,80.40
2023-02-27T18:08:41.577Z,80.90
2023-02-27T18:11:12.254Z,80.90
2023-02-27T18:13:39.722Z,81.10
2023-02-27T18:16:06.942Z,81.10
2023-02-27T18:18:37.688Z,81.80
2023-02-27T18:21:06.862Z,81.40
2023-02-27T18:23:33.682Z,82.10
2023-02-27T18:26:00.452Z,81.50
2023-02-27T18:28:27.794Z,82.10
2023-02-27T18:30:54.869Z,82.30
2023-02-27T18:33:23.015Z,82.00
2023-02-27T18:35:50.254Z,82.40
2023-02-27T18:38:17.023Z,82.70
2023-02-27T18:40:43.801Z,82.50
2023-02-27T18:43:11.255Z,82.50
2023-02-27T18:45:38.352Z,82.50
2023-02-27T18:48:05.108Z,82.60
2023-02-27T18:50:31.860Z,82.80
2023-02-27T18:53:00.204Z,81.80
2023-02-27T18:55:27.255Z,81.80
2023-02-27T18:57:53.982Z,82.30
2023-02-27T19:00:21.942Z,82.90
2023-02-27T19:02:48.747Z,82.20
2023-02-27T19:05:15.524Z,81.90
2023-02-27T19:07:42.642Z,82.50
2023-02-27T19:10:09.838Z,82.60
2023-02-27T19:12:36.643Z,82.30
2023-02-27T19:15:03.995Z,82.40
2023-02-27T19:17:30.739Z,82.40
2023-02-27T19:19:57.426Z,82.80
2023-02-27T19:22:29.340Z,83.30
2023-02-27T19:24:58.990Z,83.10
2023-02-27T19:27:25.751Z,83.30
2023-02-27T19:29:52.375Z,83.30
2023-02-27T19:32:19.090Z,83.70
2023-02-27T19:34:45.839Z,83.80
2023-02-27T19:37:12.691Z,84.00
2023-02-27T19:39:39.431Z,84.10
2023-02-27T19:42:06.146Z,84.40
2023-02-27T19:44:32.816Z,84.30
2023-02-27T19:47:00.283Z,84.30
2023-02-27T19:49:27.130Z,84.60
2023-02-27T19:51:54.062Z,85.30
2023-02-27T19:54:20.840Z,85.10
2023-02-27T19:56:47.850Z,85.20
2023-02-27T19:59:14.610Z,85.30
2023-02-27T20:01:41.554Z,86.00
2023-02-27T20:04:08.337Z,85.90
2023-02-27T20:06:42.114Z,86.30
2023-02-27T20:09:09.922Z,86.60
2023-02-27T20:11:36.647Z,86.20
2023-02-27T20:14:03.470Z,86.20
2023-02-27T20:16:34.463Z,86.70
2023-02-27T20:19:04.765Z,86.50
2023-02-27T20:21:33.089Z,87.10
2023-02-27T20:24:00.270Z,87.50
2023-02-27T20:26:28.563Z,87.30
2023-02-27T20:28:56.300Z,87.00
2023-02-27T20:31:24.535Z,87.60
2023-02-27T20:33:51.405Z,87.90
2023-02-27T20:36:18.620Z,88.20
2023-02-27T20:38:45.427Z,88.40
2023-02-27T20:41:17.237Z,88.50
2023-02-27T20:43:44.381Z,88.30
2023-02-27T20:46:12.643Z,89.00
2023-02-27T20:48:39.892Z,89.00
2023-02-27T20:51:06.725Z,89.10
2023-02-27T20:53:34.548Z,89.30
2023-02-27T20:56:01.170Z,89.20
2023-02-27T20:58:27.879Z,89.20
2023-02-27T21:00:57.113Z,88.80
2023-02-27T21:03:25.164Z,89.20
2023-02-27T21:05:51.913Z,89.40
2023-02-27T21:08:18.655Z,89.40
2023-02-27T21:10:46.684Z,89.10
2023-02-27T21:13:13.343Z,88.80
2023-02-27T21:15:40.012Z,89.30
2023-02-27T21:18:06.761Z,89.00
2023-02-27T21:20:33.369Z,89.40
2023-02-27T21:23:00.075Z,89.30
2023-02-27T21:25:28.447Z,89.20
2023-02-27T21:27:56.347Z,89.00
2023-02-27T21:30:23.110Z,89.70
2023-02-27T21:32:49.700Z,89.80
2023-02-27T21:35:16.401Z,89.80
2023-02-27T21:37:46.667Z,90.10
2023-02-27T21:40:14.043Z,90.00
2023-02-27T21:42:40.758Z,90.30
2023-02-27T21:45:07.704Z,90.20
2023-02-27T21:47:34.439Z,90.30
2023-02-27T21:50:01.157Z,90.40
2023-02-27T21:52:28.001Z,90.50
2023-02-27T21:54:55.875Z,90.70
2023-02-27T21:57:23.034Z,90.70
2023-02-27T21:59:49.667Z,90.70
2023-02-27T22:02:16.279Z,90.70
2023-02-27T22:04:42.971Z,90.90
2023-02-27T22:07:11.421Z,91.00
2023-02-27T22:09:38.244Z,91.00
2023-02-27T22:12:05.099Z,91.00
2023-02-27T22:14:31.728Z,91.20
2023-02-27T22:16:58.508Z,91.20
2023-02-27T22:19:25.246Z,91.40
2023-02-27T22:21:52.026Z,91.40
2023-02-27T22:24:18.815Z,91.60
2023-02-27T22:26:45.826Z,91.50
2023-02-27T22:29:12.585Z,91.60
2023-02-27T22:31:39.371Z,91.90
2023-02-27T22:34:07.679Z,91.90
2023-02-27T22:36:35.005Z,91.90
2023-02-27T22:39:01.917Z,91.90
2023-02-27T22:41:30.631Z,92.00
2023-02-27T22:43:58.261Z,92.00
2023-02-27T22:46:32.191Z,92.20
2023-02-27T22:49:00.467Z,92.30
2023-02-27T22:51:28.611Z,92.30
2023-02-27T22:53:56.822Z,92.40
2023-02-27T22:56:23.930Z,92.50
2023-02-27T22:58:50.960Z,92.60
2023-02-27T23:01:19.452Z,92.70
2023-02-27T23:03:47.267Z,92.80
2023-02-27T23:06:15.443Z,92.70
2023-02-27T23:08:42.537Z,92.90
2023-02-27T23:11:10.130Z,92.90
2023-02-27T23:13:37.178Z,93.10
2023-02-27T23:16:11.275Z,93.20
2023-02-27T23:18:41.530Z,93.20
2023-02-27T23:21:09.048Z,93.30
2023-02-27T23:23:35.900Z,93.50
2023-02-27T23:26:03.051Z,93.50
2023-02-27T23:28:30.246Z,93.80
2023-02-27T23:30:56.938Z,93.70
2023-02-27T23:33:23.703Z,93.80
2023-02-27T23:35:51.890Z,93.90
2023-02-27T23:38:18.900Z,93.90
2023-02-27T23:40:45.497Z,94.00
2023-02-27T23:43:30.712Z,94.10
2023-02-27T23:45:57.450Z,94.20
2023-02-27T23:48:24.249Z,94.30
2023-02-27T23:50:51.022Z,94.40
2023-02-27T23:53:19.012Z,94.40
2023-02-27T23:55:45.702Z,94.50
2023-02-27T23:58:12.464Z,94.60
